Port Credit, Canada
Current Conditions -  °F | °C
As of 2:00 PM on Thursday 30 Oct 2014 (Local Time) from CYYZ Reporting Station
Broken Clouds Broken Clouds  
Wind Chill: 44°   Ceiling: 3900
Heat Index: 48°   Visibility: 15mi
Dew Point: 34°   Wind: 9mph
Humidity: 57%   Direction: 250°WSW
Pressure: 30.05"   Gusts: NA
Location:  43.55°N, 79.58°W
Report Text: CYYZ 301800Z 25008KT 15SM BKN039 09/01 A3005 RMK SC7 SLP180
Loading
Personal Weather Stations






























Interactive Weather Map
Tropical Storm Tracking
New forecast layout! Learn more

10-Day Weather Forecast

Advertisements
Track Severe Weather on mobile